createdAt,value
2023-05-02T00:00:51.251Z,27.33
2023-05-02T00:03:17.882Z,26.17
2023-05-02T00:05:44.668Z,27.52
2023-05-02T00:08:12.449Z,26.35
2023-05-02T00:10:39.118Z,21.15
2023-05-02T00:13:05.821Z,25.88
2023-05-02T00:15:32.301Z,26.73
2023-05-02T00:17:58.846Z,23.67
2023-05-02T00:20:25.612Z,26.95
2023-05-02T00:22:52.130Z,19.90
2023-05-02T00:25:18.674Z,21.20
2023-05-02T00:27:46.736Z,19.30
2023-05-02T00:30:14.270Z,20.67
2023-05-02T00:32:40.945Z,17.10
2023-05-02T00:35:08.610Z,17.67
2023-05-02T00:37:35.940Z,15.15
2023-05-02T00:40:03.516Z,15.83
2023-05-02T00:42:34.539Z,14.43
2023-05-02T00:45:00.992Z,14.25
2023-05-02T00:47:27.568Z,11.85
2023-05-02T00:49:54.082Z,9.77
2023-05-02T00:52:20.884Z,8.70
2023-05-02T00:54:47.422Z,9.65
2023-05-02T00:57:13.913Z,9.15
2023-05-02T00:59:40.610Z,8.93
2023-05-02T01:02:34.475Z,9.23
2023-05-02T01:05:44.557Z,7.40
2023-05-02T01:08:26.055Z,11.35
2023-05-02T01:11:11.661Z,6.63
2023-05-02T01:13:40.242Z,6.15
2023-05-02T01:16:10.382Z,5.72
2023-05-02T01:18:39.290Z,7.97
2023-05-02T01:21:09.240Z,8.18
2023-05-02T01:23:54.591Z,5.68
2023-05-02T01:26:36.492Z,3.67
2023-05-02T01:29:08.528Z,4.68
2023-05-02T01:31:38.132Z,4.60
2023-05-02T01:34:07.906Z,2.53
2023-05-02T01:36:36.228Z,2.40
2023-05-02T01:39:06.035Z,1.75
2023-05-02T01:41:34.573Z,2.05
2023-05-02T01:44:03.271Z,3.30
2023-05-02T01:46:40.010Z,3.72
2023-05-02T01:49:08.175Z,1.70
2023-05-02T01:51:37.121Z,4.53
2023-05-02T01:54:07.054Z,2.85
2023-05-02T01:56:36.856Z,5.30
2023-05-02T01:59:08.295Z,7.65
2023-05-02T02:01:40.088Z,9.80
2023-05-02T02:04:09.857Z,4.10
2023-05-02T02:06:36.658Z,5.43
2023-05-02T02:09:03.852Z,7.27
2023-05-02T02:11:57.832Z,6.32
2023-05-02T02:14:33.703Z,4.75
2023-05-02T02:17:02.478Z,6.50
2023-05-02T02:19:30.856Z,4.93
2023-05-02T02:21:58.804Z,3.87
2023-05-02T02:24:26.811Z,7.93
2023-05-02T02:26:53.466Z,3.95
2023-05-02T02:29:19.951Z,2.97
2023-05-02T02:31:46.444Z,3.95
2023-05-02T02:34:13.231Z,2.73
2023-05-02T02:36:47.833Z,4.80
2023-05-02T02:39:38.789Z,2.78
2023-05-02T02:42:16.123Z,3.30
2023-05-02T02:45:13.638Z,6.65
2023-05-02T02:47:49.080Z,3.77
2023-05-02T02:50:40.709Z,5.45
2023-05-02T02:53:12.868Z,3.08
2023-05-02T02:55:45.047Z,2.45
2023-05-02T02:58:42.839Z,4.63
2023-05-02T03:01:19.836Z,1.73
2023-05-02T03:03:48.570Z,4.55
2023-05-02T03:06:17.532Z,2.42
2023-05-02T03:08:44.815Z,3.83
2023-05-02T03:11:11.283Z,4.47
2023-05-02T03:13:37.922Z,4.00
2023-05-02T03:16:31.619Z,4.00
2023-05-02T03:18:58.453Z,2.70
2023-05-02T03:21:24.929Z,2.95
2023-05-02T03:23:51.400Z,5.70
2023-05-02T03:26:17.853Z,4.10
2023-05-02T03:28:47.215Z,4.20
2023-05-02T03:31:16.898Z,3.40
2023-05-02T03:33:43.552Z,5.10
2023-05-02T03:36:11.092Z,2.72
2023-05-02T03:38:37.750Z,4.77
2023-05-02T03:41:04.355Z,4.20
2023-05-02T03:43:30.907Z,4.80
2023-05-02T03:45:58.120Z,4.45
2023-05-02T03:48:24.640Z,3.30
2023-05-02T03:50:51.176Z,3.47
2023-05-02T03:53:17.693Z,1.95
2023-05-02T03:55:44.441Z,1.55
2023-05-02T03:58:10.991Z,6.55
2023-05-02T04:00:38.612Z,5.05
2023-05-02T04:03:05.192Z,5.30
2023-05-02T04:05:31.732Z,2.92
2023-05-02T04:07:58.367Z,8.55
2023-05-02T04:10:24.999Z,3.25
2023-05-02T04:12:51.469Z,3.28
2023-05-02T04:15:18.115Z,3.20
2023-05-02T04:17:44.617Z,6.60
2023-05-02T04:20:11.588Z,3.95
2023-05-02T04:22:39.653Z,3.42
2023-05-02T04:25:07.553Z,3.58
2023-05-02T04:27:34.166Z,5.13
2023-05-02T04:30:01.113Z,4.78
2023-05-02T04:32:28.042Z,6.70
2023-05-02T04:34:54.888Z,4.75
2023-05-02T04:37:21.548Z,3.10
2023-05-02T04:39:48.167Z,4.23
2023-05-02T04:42:14.688Z,4.05
2023-05-02T04:44:41.328Z,9.32
2023-05-02T04:47:07.931Z,6.05
2023-05-02T04:49:34.500Z,4.82
2023-05-02T04:52:01.023Z,2.57
2023-05-02T04:54:28.082Z,3.55
2023-05-02T04:56:54.636Z,3.67
2023-05-02T04:59:21.112Z,4.82
2023-05-02T05:01:47.642Z,7.30
2023-05-02T05:04:14.224Z,6.93
2023-05-02T05:06:40.960Z,8.27
2023-05-02T05:09:07.780Z,5.93
2023-05-02T05:11:34.234Z,5.00
2023-05-02T05:14:00.796Z,6.10
2023-05-02T05:16:27.359Z,6.30
2023-05-02T05:18:53.989Z,9.13
2023-05-02T05:21:20.794Z,8.40
2023-05-02T05:23:47.688Z,6.28
2023-05-02T05:26:16.025Z,7.80
2023-05-02T05:28:43.744Z,3.57
2023-05-02T05:31:17.286Z,7.07
2023-05-02T05:33:44.313Z,4.25
2023-05-02T05:36:14.924Z,6.40
2023-05-02T05:38:41.429Z,6.97
2023-05-02T05:41:08.354Z,7.33
2023-05-02T05:43:37.346Z,7.22
2023-05-02T05:46:04.740Z,5.82
2023-05-02T05:48:31.345Z,6.93
2023-05-02T05:50:57.847Z,3.75
2023-05-02T05:53:24.408Z,4.63
2023-05-02T05:55:50.992Z,5.95
2023-05-02T05:58:17.684Z,5.35
2023-05-02T06:00:44.174Z,2.67
2023-05-02T06:03:11.088Z,4.32
2023-05-02T06:05:37.819Z,4.23
2023-05-02T06:08:04.559Z,4.40
2023-05-02T06:10:31.596Z,6.85
2023-05-02T06:12:58.229Z,6.82
2023-05-02T06:15:24.732Z,4.32
2023-05-02T06:17:52.076Z,5.77
2023-05-02T06:20:18.914Z,4.78
2023-05-02T06:22:45.428Z,8.68
2023-05-02T06:25:11.952Z,5.22
2023-05-02T06:27:38.568Z,4.93
2023-05-02T06:30:06.043Z,5.03
2023-05-02T06:32:33.048Z,2.00
2023-05-02T06:34:59.680Z,6.50
2023-05-02T06:37:26.217Z,5.00
2023-05-02T06:39:52.738Z,6.97
2023-05-02T06:42:19.210Z,3.67
2023-05-02T06:44:45.672Z,6.18
2023-05-02T06:47:12.430Z,7.25
2023-05-02T06:49:38.919Z,4.80
2023-05-02T06:52:05.404Z,2.55
2023-05-02T06:54:31.860Z,3.90
2023-05-02T06:56:59.645Z,10.48
2023-05-02T06:59:26.249Z,5.25
2023-05-02T07:01:52.737Z,7.50
2023-05-02T07:04:19.245Z,2.35
2023-05-02T07:06:47.088Z,6.10
2023-05-02T07:09:13.593Z,8.48
2023-05-02T07:11:40.102Z,3.78
2023-05-02T07:14:06.550Z,2.50
2023-05-02T07:16:33.397Z,4.47
2023-05-02T07:19:00.185Z,3.53
2023-05-02T07:21:26.705Z,9.70
2023-05-02T07:23:55.383Z,7.13
2023-05-02T07:26:22.734Z,5.03
2023-05-02T07:28:49.300Z,8.30
2023-05-02T07:31:17.583Z,2.67
2023-05-02T07:33:45.259Z,4.68
2023-05-02T07:36:11.750Z,3.00
2023-05-02T07:38:38.292Z,5.95
2023-05-02T07:41:04.925Z,4.18
2023-05-02T07:43:31.557Z,3.73
2023-05-02T07:45:58.424Z,4.30
2023-05-02T07:48:27.077Z,5.57
2023-05-02T07:50:54.327Z,6.35
2023-05-02T07:53:20.869Z,6.07
2023-05-02T07:55:47.548Z,5.97
2023-05-02T07:58:14.030Z,5.80
2023-05-02T08:00:40.540Z,4.38
2023-05-02T08:03:07.761Z,4.25
2023-05-02T08:05:34.535Z,2.83
2023-05-02T08:08:02.138Z,4.13
2023-05-02T08:10:28.676Z,4.07
2023-05-02T08:12:55.481Z,3.70
2023-05-02T08:15:21.980Z,4.22
2023-05-02T08:17:48.552Z,2.50
2023-05-02T08:20:15.158Z,4.17
2023-05-02T08:22:41.685Z,4.35
2023-05-02T08:25:08.423Z,2.08
2023-05-02T08:27:35.508Z,2.85
2023-05-02T08:30:02.126Z,5.03
2023-05-02T08:32:30.029Z,2.87
2023-05-02T08:34:59.512Z,6.13
2023-05-02T08:37:26.122Z,3.20
2023-05-02T08:39:52.678Z,5.10
2023-05-02T08:42:20.733Z,1.50
2023-05-02T08:44:49.031Z,2.00
2023-05-02T08:47:15.988Z,4.50
2023-05-02T08:49:43.091Z,3.70
2023-05-02T08:52:12.196Z,2.33
2023-05-02T08:54:39.469Z,3.45
2023-05-02T08:57:07.235Z,7.13
2023-05-02T08:59:33.735Z,3.85
2023-05-02T09:02:10.407Z,3.10
2023-05-02T09:04:42.980Z,2.50
2023-05-02T09:07:10.776Z,3.00
2023-05-02T09:09:37.702Z,1.87
2023-05-02T09:12:04.301Z,3.03
2023-05-02T09:14:31.076Z,3.55
2023-05-02T09:17:01.642Z,3.33
2023-05-02T09:19:28.198Z,2.30
2023-05-02T09:22:01.389Z,4.00
2023-05-02T09:24:28.946Z,2.38
2023-05-02T09:26:59.014Z,1.00
2023-05-02T09:29:28.115Z,22.60
2023-05-02T09:31:56.597Z,1.00
2023-05-02T09:34:23.682Z,6.57
2023-05-02T09:36:53.978Z,2.28
2023-05-02T09:39:25.835Z,1.67
2023-05-02T09:41:53.231Z,1.55
2023-05-02T09:44:22.730Z,6.72
2023-05-02T09:46:54.514Z,2.53
2023-05-02T09:49:41.566Z,4.95
2023-05-02T09:52:15.496Z,1.88
2023-05-02T09:54:42.409Z,4.03
2023-05-02T09:57:10.607Z,2.97
2023-05-02T09:59:37.376Z,2.37
2023-05-02T10:02:05.402Z,3.15
2023-05-02T10:04:33.722Z,2.85
2023-05-02T10:07:02.469Z,1.40
2023-05-02T10:09:33.499Z,5.25
2023-05-02T10:12:08.196Z,3.70
2023-05-02T10:14:41.685Z,3.72
2023-05-02T10:17:14.317Z,3.67
2023-05-02T10:20:01.150Z,4.47
2023-05-02T10:22:28.008Z,3.05
2023-05-02T10:24:57.815Z,1.40
2023-05-02T10:27:24.677Z,4.60
2023-05-02T10:29:52.153Z,2.10
2023-05-02T10:32:18.957Z,3.88
2023-05-02T10:34:46.512Z,4.25
2023-05-02T10:37:13.184Z,3.33
2023-05-02T10:39:39.710Z,4.22
2023-05-02T10:42:06.972Z,2.30
2023-05-02T10:44:41.468Z,3.63
2023-05-02T10:47:20.312Z,2.78
2023-05-02T10:49:57.393Z,8.07
2023-05-02T10:52:30.053Z,3.30
2023-05-02T10:55:22.376Z,3.55
2023-05-02T10:57:58.499Z,3.03
2023-05-02T11:00:26.891Z,3.90
2023-05-02T11:02:53.693Z,2.17
2023-05-02T11:05:23.136Z,2.70
2023-05-02T11:07:49.747Z,5.88
2023-05-02T11:10:20.290Z,3.60
2023-05-02T11:12:47.498Z,3.80
2023-05-02T11:15:15.107Z,3.07
2023-05-02T11:17:59.018Z,4.10
2023-05-02T11:20:25.939Z,3.15
2023-05-02T11:22:52.942Z,5.18
2023-05-02T11:25:30.967Z,2.58
2023-05-02T11:27:57.993Z,4.23
2023-05-02T11:30:45.101Z,5.32
2023-05-02T11:33:13.186Z,3.88
2023-05-02T11:35:42.745Z,4.43
2023-05-02T11:38:14.245Z,5.15
2023-05-02T11:40:41.052Z,3.17
2023-05-02T11:43:16.142Z,3.95
2023-05-02T11:45:43.715Z,4.63
2023-05-02T11:48:13.116Z,2.38
2023-05-02T11:50:51.465Z,2.80
2023-05-02T11:53:22.376Z,4.60
2023-05-02T11:55:54.605Z,6.68
2023-05-02T11:58:26.327Z,3.08
2023-05-02T12:00:53.728Z,4.93
2023-05-02T12:03:24.642Z,4.15
2023-05-02T12:05:51.725Z,3.67
2023-05-02T12:08:24.041Z,4.30
2023-05-02T12:10:52.434Z,3.50
2023-05-02T12:13:20.557Z,3.25
2023-05-02T12:15:48.313Z,4.20
2023-05-02T12:18:15.341Z,3.50
2023-05-02T12:20:42.575Z,7.15
2023-05-02T12:23:12.997Z,5.75
2023-05-02T12:25:41.364Z,7.80
2023-05-02T12:28:08.892Z,5.30
2023-05-02T12:30:38.420Z,5.10
2023-05-02T12:33:06.400Z,4.65
2023-05-02T12:35:34.516Z,3.45
2023-05-02T12:38:16.402Z,5.80
2023-05-02T12:40:51.388Z,5.80
2023-05-02T12:43:18.463Z,3.73
2023-05-02T12:45:45.099Z,7.53
2023-05-02T12:48:18.968Z,4.75
2023-05-02T12:50:45.620Z,3.67
2023-05-02T12:53:12.352Z,6.07
2023-05-02T12:55:38.949Z,4.87
2023-05-02T12:58:07.888Z,3.15
2023-05-02T13:00:38.134Z,4.80
2023-05-02T13:03:06.185Z,2.97
2023-05-02T13:05:33.016Z,4.85
2023-05-02T13:07:59.632Z,3.10
2023-05-02T13:10:26.755Z,5.22
2023-05-02T13:12:53.406Z,2.17
2023-05-02T13:15:20.533Z,2.28
2023-05-02T13:17:47.932Z,2.70
2023-05-02T13:20:14.892Z,3.37
2023-05-02T13:22:41.444Z,1.90
2023-05-02T13:25:09.101Z,2.55
2023-05-02T13:27:35.634Z,2.75
2023-05-02T13:30:04.197Z,2.88
2023-05-02T13:32:33.079Z,4.40
2023-05-02T13:34:59.560Z,2.15
2023-05-02T13:37:26.896Z,4.15
2023-05-02T13:39:53.498Z,3.10
2023-05-02T13:42:20.133Z,2.83
2023-05-02T13:44:46.937Z,2.67
2023-05-02T13:47:13.435Z,3.03
2023-05-02T13:49:39.876Z,2.97
2023-05-02T13:52:07.327Z,2.70
2023-05-02T13:54:33.882Z,4.10
2023-05-02T13:57:00.962Z,3.67
2023-05-02T13:59:27.478Z,2.28
2023-05-02T14:01:54.352Z,2.00
2023-05-02T14:04:21.668Z,2.92
2023-05-02T14:06:49.780Z,2.33
2023-05-02T14:09:17.041Z,3.97
2023-05-02T14:11:44.407Z,3.10
2023-05-02T14:14:12.548Z,5.15
2023-05-02T14:16:39.706Z,2.58
2023-05-02T14:19:06.346Z,3.92
2023-05-02T14:21:37.397Z,3.03
2023-05-02T14:24:04.932Z,2.92
2023-05-02T14:26:31.574Z,4.18
2023-05-02T14:28:58.481Z,1.83
2023-05-02T14:31:25.169Z,4.53
2023-05-02T14:33:51.831Z,5.20
2023-05-02T14:36:18.376Z,2.53
2023-05-02T14:38:44.854Z,2.45
2023-05-02T14:41:11.320Z,3.95
2023-05-02T14:43:39.354Z,2.70
2023-05-02T14:46:06.365Z,2.33
2023-05-02T14:48:32.982Z,1.83
2023-05-02T14:51:01.274Z,1.85
2023-05-02T14:53:27.756Z,3.22
2023-05-02T14:55:54.200Z,1.45
2023-05-02T14:58:21.065Z,1.93
2023-05-02T15:00:48.117Z,6.18
2023-05-02T15:03:14.931Z,4.05
2023-05-02T15:05:41.913Z,1.95
2023-05-02T15:08:08.592Z,4.20
2023-05-02T15:10:39.774Z,2.07
2023-05-02T15:13:07.263Z,2.08
2023-05-02T15:15:33.992Z,2.40
2023-05-02T15:18:00.493Z,1.98
2023-05-02T15:20:27.095Z,1.23
2023-05-02T15:22:53.633Z,1.27
2023-05-02T15:25:20.148Z,3.67
2023-05-02T15:27:46.655Z,2.78
2023-05-02T15:30:14.033Z,1.90
2023-05-02T15:32:41.561Z,1.13
2023-05-02T15:35:08.782Z,3.03
2023-05-02T15:37:35.430Z,1.35
2023-05-02T15:40:04.156Z,5.32
2023-05-02T15:42:31.087Z,2.10
2023-05-02T15:44:57.604Z,5.15
2023-05-02T15:47:24.301Z,2.90
2023-05-02T15:49:53.849Z,4.32
2023-05-02T15:52:20.915Z,2.55
2023-05-02T15:54:47.642Z,1.40
2023-05-02T15:57:14.156Z,3.05
2023-05-02T15:59:40.659Z,2.70
2023-05-02T16:02:07.248Z,3.05
2023-05-02T16:04:34.922Z,1.98
2023-05-02T16:07:02.450Z,6.15
2023-05-02T16:09:31.126Z,3.80
2023-05-02T16:11:57.954Z,1.33
2023-05-02T16:14:26.124Z,2.20
2023-05-02T16:16:52.966Z,3.80
2023-05-02T16:19:19.449Z,2.80
2023-05-02T16:21:46.334Z,3.17
2023-05-02T16:24:13.008Z,2.40
2023-05-02T16:26:40.703Z,4.90
2023-05-02T16:29:07.255Z,1.40
2023-05-02T16:31:34.859Z,5.50
2023-05-02T16:34:04.179Z,1.90
2023-05-02T16:36:31.659Z,1.77
2023-05-02T16:38:58.123Z,1.40
2023-05-02T16:41:24.640Z,1.85
2023-05-02T16:43:51.265Z,1.17
2023-05-02T16:46:18.097Z,1.02
2023-05-02T16:48:44.555Z,1.50
2023-05-02T16:51:11.037Z,2.13
2023-05-02T16:53:37.529Z,2.53
2023-05-02T16:56:04.207Z,3.58
2023-05-02T16:58:30.873Z,1.02
2023-05-02T17:01:02.310Z,1.60
2023-05-02T17:03:29.885Z,1.85
2023-05-02T17:06:03.517Z,2.70
2023-05-02T17:08:30.422Z,3.45
2023-05-02T17:10:56.916Z,1.80
2023-05-02T17:13:23.955Z,1.10
2023-05-02T17:15:51.288Z,1.73
2023-05-02T17:18:17.899Z,1.02
2023-05-02T17:20:46.127Z,4.15
2023-05-02T17:23:12.981Z,6.18
2023-05-02T17:25:39.511Z,1.63
2023-05-02T17:28:06.496Z,2.20
2023-05-02T17:30:35.694Z,3.65
2023-05-02T17:33:02.439Z,1.98
2023-05-02T17:35:28.951Z,2.13
2023-05-02T17:37:55.775Z,2.10
2023-05-02T17:40:22.493Z,3.13
2023-05-02T17:42:49.332Z,1.88
2023-05-02T17:45:16.633Z,1.95
2023-05-02T17:47:43.147Z,1.45
2023-05-02T17:50:09.939Z,3.13
2023-05-02T17:52:36.713Z,1.88
2023-05-02T17:55:04.199Z,1.00
2023-05-02T17:57:30.861Z,2.70
2023-05-02T18:00:01.672Z,1.15
2023-05-02T18:02:28.443Z,5.47
2023-05-02T18:04:55.165Z,1.92
2023-05-02T18:07:24.580Z,2.67
2023-05-02T18:09:51.784Z,2.42
2023-05-02T18:12:19.257Z,2.08
2023-05-02T18:14:45.940Z,1.13
2023-05-02T18:17:12.751Z,0.63
2023-05-02T18:19:39.378Z,3.08
2023-05-02T18:22:05.872Z,1.27
2023-05-02T18:24:32.726Z,1.27
2023-05-02T18:26:59.373Z,2.53
2023-05-02T18:29:26.007Z,0.80
2023-05-02T18:31:52.709Z,1.23
2023-05-02T18:34:19.504Z,2.60
2023-05-02T18:36:46.043Z,2.28
2023-05-02T18:39:13.519Z,0.80
2023-05-02T18:41:40.252Z,0.80
2023-05-02T18:44:10.443Z,0.90
2023-05-02T18:46:37.504Z,1.50
2023-05-02T18:49:04.273Z,0.73
2023-05-02T18:51:31.025Z,1.30
2023-05-02T18:53:57.533Z,1.58
2023-05-02T18:56:25.452Z,0.80
2023-05-02T18:58:56.326Z,1.17
2023-05-02T19:01:23.848Z,0.98
2023-05-02T19:03:52.894Z,2.50
2023-05-02T19:06:20.468Z,1.38
2023-05-02T19:08:47.953Z,0.70
2023-05-02T19:11:14.945Z,0.73
2023-05-02T19:13:41.572Z,1.13
2023-05-02T19:16:12.660Z,0.87
2023-05-02T19:18:39.641Z,0.90
2023-05-02T19:21:13.715Z,0.65
2023-05-02T19:23:44.612Z,0.73
2023-05-02T19:26:15.750Z,0.77
2023-05-02T19:28:43.307Z,4.00
2023-05-02T19:31:11.742Z,1.17
2023-05-02T19:33:39.557Z,2.03
2023-05-02T19:36:07.286Z,2.85
2023-05-02T19:38:35.255Z,1.42
2023-05-02T19:41:02.302Z,1.03
2023-05-02T19:43:28.957Z,1.63
2023-05-02T19:45:55.721Z,1.00
2023-05-02T19:48:22.930Z,1.83
2023-05-02T19:50:49.839Z,1.80
2023-05-02T19:53:16.355Z,0.53
2023-05-02T19:55:42.950Z,1.33
2023-05-02T19:58:09.543Z,1.70
2023-05-02T20:00:36.110Z,2.45
2023-05-02T20:03:03.470Z,1.40
2023-05-02T20:05:30.542Z,2.03
2023-05-02T20:07:56.994Z,0.75
2023-05-02T20:10:23.506Z,0.93
2023-05-02T20:12:50.012Z,1.48
2023-05-02T20:15:16.920Z,1.08
2023-05-02T20:17:50.035Z,1.27
2023-05-02T20:20:16.880Z,2.22
2023-05-02T20:22:44.568Z,1.58
2023-05-02T20:25:15.965Z,0.70
2023-05-02T20:27:43.071Z,0.90
2023-05-02T20:30:10.466Z,2.50
2023-05-02T20:32:37.291Z,1.42
2023-05-02T20:35:03.920Z,1.92
2023-05-02T20:37:30.799Z,0.95
2023-05-02T20:39:57.323Z,1.15
2023-05-02T20:42:25.493Z,2.70
2023-05-02T20:44:59.308Z,1.42
2023-05-02T20:47:33.504Z,3.72
2023-05-02T20:50:00.228Z,1.02
2023-05-02T20:52:26.935Z,1.33
2023-05-02T20:54:55.511Z,2.33
2023-05-02T20:57:22.886Z,3.63
2023-05-02T20:59:49.441Z,3.42
2023-05-02T21:02:16.137Z,2.35
2023-05-02T21:04:42.655Z,1.95
2023-05-02T21:07:09.164Z,1.07
2023-05-02T21:09:35.602Z,1.15
2023-05-02T21:12:02.532Z,1.75
2023-05-02T21:14:29.060Z,4.75
2023-05-02T21:16:55.550Z,3.45
2023-05-02T21:19:22.089Z,2.50
2023-05-02T21:21:48.667Z,1.70
2023-05-02T21:24:15.556Z,2.53
2023-05-02T21:26:42.584Z,2.80
2023-05-02T21:29:10.761Z,1.08
2023-05-02T21:31:39.482Z,3.60
2023-05-02T21:34:06.209Z,2.55
2023-05-02T21:36:32.759Z,1.10
2023-05-02T21:38:59.275Z,1.67
2023-05-02T21:41:25.907Z,1.35
2023-05-02T21:43:52.509Z,3.73
2023-05-02T21:46:19.227Z,2.35
2023-05-02T21:48:45.762Z,2.03
2023-05-02T21:51:13.856Z,7.35
2023-05-02T21:53:40.885Z,2.15
2023-05-02T21:56:08.173Z,1.43
2023-05-02T21:58:34.765Z,1.50
2023-05-02T22:01:01.507Z,2.03
2023-05-02T22:03:28.488Z,2.15
2023-05-02T22:05:57.456Z,2.20
2023-05-02T22:08:24.488Z,1.80
2023-05-02T22:10:51.226Z,4.30
2023-05-02T22:13:18.246Z,1.58
2023-05-02T22:15:48.374Z,3.95
2023-05-02T22:18:16.749Z,1.63
2023-05-02T22:20:48.017Z,4.53
2023-05-02T22:23:14.664Z,2.17
2023-05-02T22:25:43.403Z,2.00
2023-05-02T22:28:13.592Z,2.97
2023-05-02T22:30:44.790Z,1.33
2023-05-02T22:33:14.710Z,2.03
2023-05-02T22:35:41.369Z,2.38
2023-05-02T22:38:11.006Z,2.85
2023-05-02T22:40:37.496Z,2.42
2023-05-02T22:43:04.050Z,2.15
2023-05-02T22:45:30.545Z,2.23
2023-05-02T22:47:57.195Z,2.38
2023-05-02T22:50:26.198Z,2.63
2023-05-02T22:52:57.040Z,1.40
2023-05-02T22:55:24.194Z,3.22
2023-05-02T22:57:50.963Z,2.90
2023-05-02T23:00:17.713Z,3.58
2023-05-02T23:02:44.860Z,2.80
2023-05-02T23:05:11.903Z,2.58
2023-05-02T23:07:38.415Z,1.83
2023-05-02T23:10:06.137Z,1.00
2023-05-02T23:12:32.814Z,1.35
2023-05-02T23:14:59.444Z,0.80
2023-05-02T23:17:25.967Z,1.38
2023-05-02T23:19:52.537Z,2.55
2023-05-02T23:22:19.051Z,1.53
2023-05-02T23:24:48.394Z,1.42
2023-05-02T23:27:17.548Z,1.02
2023-05-02T23:29:45.947Z,4.88
2023-05-02T23:32:12.433Z,2.05
2023-05-02T23:34:38.931Z,1.90
2023-05-02T23:37:06.918Z,2.42
2023-05-02T23:39:33.716Z,3.28
2023-05-02T23:42:01.951Z,1.95
2023-05-02T23:44:28.412Z,6.05
2023-05-02T23:46:54.912Z,2.17
2023-05-02T23:49:21.864Z,2.40
2023-05-02T23:51:50.436Z,2.25
2023-05-02T23:54:19.485Z,3.42
2023-05-02T23:56:46.704Z,2.83
2023-05-02T23:59:13.211Z,2.27
